Terminal Aerodrome Forecast
Issued by NWS Atlanta, GA

Home | Current Version | Previous Version | Text Only | Print | Product List | Glossary On
Versions: 1 2 3 4 5 6 7 8 9 10 11 12 13 14 15 16 17 18 19 20 21 22 23 24 25 26 27 28 29 30
000
FTUS42 KFFC 011134
TAFAHN
TAF
KAHN 011134Z 0112/0212 26005KT P6SM FEW005 SCT050
     FM011400 36007KT P6SM FEW040
     FM011600 04009KT P6SM FEW045
     FM012000 08005KT P6SM SKC
     FM020600 11007KT P6SM SCT012
     FM020800 13007KT 3SM BR BKN007=

USA.gov is the U.S. government's official web portal to all federal, state and local government web resources and services.